Pingree Grove, Illinois
Current Conditions -  °F | °C
As of 7:35 PM on Tuesday 21 Oct 2014 (Local Time) from KDKB Reporting Station
Overcast Overcast  
Wind Chill: 41°   Ceiling: 2800
Heat Index: 45°   Visibility: 10mi
Dew Point: 37°   Wind: 6mph
Humidity: 73%   Direction: 50°NE
Pressure: 30.25"   Gusts: NA
Location:  42.0764°N, 88.5255°W
Report Text: KDKB 220035Z AUTO 05005KT 10SM OVC028 07/03 A3025 RMK AO2 T00700025
Loading
Personal Weather Stations






























Interactive Weather Map
Tropical Storm Tracking
New forecast layout! Learn more

10-Day Weather Forecast

Advertisements
Track Severe Weather on mobile